Time,TemperatureF,DewpointF,PressureIn,WindDirection,WindDirectionDegrees,WindSpeedMPH,WindSpeedGustMPH,Humidity,HourlyPrecipIn,Conditions,Clouds,dailyrainin,SoftwareType,DateUTC
2013-10-28 00:02:00,39.0,28.0,-100.00,North,355,3.0,10.0,63,-99.99,,,-99.99,,2013-10-28 05:02:00,
2013-10-28 00:22:00,39.0,28.0,-100.00,North,355,3.0,10.0,63,-99.99,,,-99.99,,2013-10-28 05:22:00,
2013-10-28 00:34:00,39.0,28.0,-100.00,North,355,3.0,10.0,63,-99.99,,,-99.99,,2013-10-28 05:34:00,
2013-10-28 00:43:00,39.0,28.0,-100.00,North,355,3.0,10.0,63,-99.99,,,-99.99,,2013-10-28 05:43:00,
2013-10-28 00:53:00,39.0,28.0,-100.00,North,355,3.0,10.0,63,-99.99,,,-99.99,,2013-10-28 05:53:00,
2013-10-28 01:01:00,37.0,27.0,-100.00,NE,35,1.0,6.0,65,-99.99,,,-99.99,,2013-10-28 06:01:00,
2013-10-28 01:22:00,37.0,27.0,-100.00,NE,35,1.0,6.0,65,-99.99,,,-99.99,,2013-10-28 06:22:00,
2013-10-28 01:32:00,37.0,27.0,-100.00,NE,35,1.0,6.0,65,-99.99,,,-99.99,,2013-10-28 06:32:00,
2013-10-28 01:43:00,37.0,27.0,-100.00,NE,35,1.0,6.0,65,-99.99,,,-99.99,,2013-10-28 06:43:00,
2013-10-28 01:52:00,37.0,27.0,-100.00,NE,35,1.0,6.0,65,-99.99,,,-99.99,,2013-10-28 06:52:00,
2013-10-28 02:02:00,35.0,27.0,-100.00,North,0,1.0,6.0,71,-99.99,,,-99.99,,2013-10-28 07:02:00,
2013-10-28 02:22:00,35.0,27.0,-100.00,North,0,1.0,6.0,71,-99.99,,,-99.99,,2013-10-28 07:22:00,
2013-10-28 02:32:00,35.0,27.0,-100.00,North,0,1.0,6.0,71,-99.99,,,-99.99,,2013-10-28 07:32:00,
2013-10-28 02:42:00,35.0,27.0,-100.00,North,0,1.0,6.0,71,-99.99,,,-99.99,,2013-10-28 07:42:00,
2013-10-28 02:52:00,35.0,27.0,-100.00,North,0,1.0,6.0,71,-99.99,,,-99.99,,2013-10-28 07:52:00,
2013-10-28 03:02:00,37.0,29.0,-100.00,NE,55,2.0,9.0,74,-99.99,,,-99.99,,2013-10-28 08:02:00,
2013-10-28 03:22:00,37.0,29.0,-100.00,NE,55,2.0,9.0,74,-99.99,,,-99.99,,2013-10-28 08:22:00,
2013-10-28 03:32:00,37.0,29.0,-100.00,NE,55,2.0,9.0,74,-99.99,,,-99.99,,2013-10-28 08:32:00,
2013-10-28 03:42:00,37.0,29.0,-100.00,NE,55,2.0,9.0,74,-99.99,,,-99.99,,2013-10-28 08:42:00,
2013-10-28 03:52:00,37.0,29.0,-100.00,NE,55,2.0,9.0,74,-99.99,,,-99.99,,2013-10-28 08:52:00,
2013-10-28 04:01:00,35.0,28.0,-100.00,NNE,15,1.0,6.0,75,-99.99,,,-99.99,,2013-10-28 09:01:00,
2013-10-28 04:22:00,35.0,28.0,-100.00,NNE,15,1.0,6.0,75,-99.99,,,-99.99,,2013-10-28 09:22:00,
2013-10-28 04:33:00,35.0,28.0,-100.00,NNE,15,1.0,6.0,75,-99.99,,,-99.99,,2013-10-28 09:33:00,
2013-10-28 04:43:00,35.0,28.0,-100.00,NNE,15,1.0,6.0,75,-99.99,,,-99.99,,2013-10-28 09:43:00,
2013-10-28 04:53:00,35.0,28.0,-100.00,NNE,15,1.0,6.0,75,-99.99,,,-99.99,,2013-10-28 09:53:00,
2013-10-28 05:02:00,35.0,30.0,-100.00,NE,50,4.0,12.0,80,-99.99,,,-99.99,,2013-10-28 10:02:00,
2013-10-28 05:23:00,35.0,30.0,-100.00,NE,50,4.0,12.0,80,-99.99,,,-99.99,,2013-10-28 10:23:00,
2013-10-28 05:33:00,35.0,30.0,-100.00,NE,50,4.0,12.0,80,-99.99,,,-99.99,,2013-10-28 10:33:00,
2013-10-28 05:43:00,35.0,30.0,-100.00,NE,50,4.0,12.0,80,-99.99,,,-99.99,,2013-10-28 10:43:00,
2013-10-28 05:53:00,35.0,30.0,-100.00,NE,50,4.0,12.0,80,-99.99,,,-99.99,,2013-10-28 10:53:00,
2013-10-28 07:22:00,33.0,22.0,-100.00,North,0,1.0,6.0,64,-99.99,,,-99.99,,2013-10-28 12:22:00,
2013-10-28 07:32:00,33.0,22.0,-100.00,North,0,1.0,6.0,64,-99.99,,,-99.99,,2013-10-28 12:32:00,
2013-10-28 07:42:00,33.0,22.0,-100.00,North,0,1.0,6.0,64,-99.99,,,-99.99,,2013-10-28 12:42:00,
2013-10-28 07:52:00,33.0,22.0,-100.00,North,0,1.0,6.0,64,-99.99,,,-99.99,,2013-10-28 12:52:00,
2013-10-28 08:01:00,33.0,22.0,-100.00,North,0,1.0,6.0,64,-99.99,,,-99.99,,2013-10-28 13:01:00,
2013-10-28 09:01:00,33.0,22.0,-100.00,North,0,1.0,6.0,64,-99.99,,,-99.99,,2013-10-28 14:01:00,
2013-10-28 09:22:00,33.0,22.0,-100.00,North,0,1.0,6.0,64,-99.99,,,-99.99,,2013-10-28 14:22:00,
2013-10-28 09:32:00,33.0,22.0,-100.00,North,0,1.0,6.0,64,-99.99,,,-99.99,,2013-10-28 14:32:00,
2013-10-28 09:42:00,33.0,22.0,-100.00,North,0,1.0,6.0,64,-99.99,,,-99.99,,2013-10-28 14:42:00,
2013-10-28 09:52:00,33.0,22.0,-100.00,North,0,1.0,6.0,64,-99.99,,,-99.99,,2013-10-28 14:52:00,
2013-10-28 10:01:00,33.0,22.0,-100.00,North,0,1.0,6.0,64,-99.99,,,-99.99,,2013-10-28 15:01:00,
2013-10-28 10:22:00,33.0,22.0,-100.00,North,0,1.0,6.0,64,-99.99,,,-99.99,,2013-10-28 15:22:00,
2013-10-28 10:33:00,33.0,22.0,-100.00,North,0,1.0,6.0,64,-99.99,,,-99.99,,2013-10-28 15:33:00,
2013-10-28 10:43:00,33.0,22.0,-100.00,North,0,1.0,6.0,64,-99.99,,,-99.99,,2013-10-28 15:43:00,
2013-10-28 10:53:00,33.0,22.0,-100.00,North,0,1.0,6.0,64,-99.99,,,-99.99,,2013-10-28 15:53:00,
2013-10-28 12:23:00,33.0,22.0,-100.00,North,0,1.0,6.0,64,-99.99,,,-99.99,,2013-10-28 17:23:00,
2013-10-28 12:34:00,33.0,22.0,-100.00,North,0,1.0,6.0,64,-99.99,,,-99.99,,2013-10-28 17:34:00,
2013-10-28 12:42:00,33.0,22.0,-100.00,North,0,1.0,6.0,64,-99.99,,,-99.99,,2013-10-28 17:42:00,
2013-10-28 12:52:00,33.0,22.0,-100.00,North,0,1.0,6.0,64,-99.99,,,-99.99,,2013-10-28 17:52:00,
2013-10-28 13:02:00,33.0,22.0,-100.00,North,0,1.0,6.0,64,-99.99,,,-99.99,,2013-10-28 18:02:00,
2013-10-28 13:22:00,33.0,22.0,-100.00,North,0,1.0,6.0,64,-99.99,,,-99.99,,2013-10-28 18:22:00,
2013-10-28 13:32:00,33.0,22.0,-100.00,North,0,1.0,6.0,64,-99.99,,,-99.99,,2013-10-28 18:32:00,
2013-10-28 19:22:00,33.0,22.0,-100.00,North,0,1.0,6.0,64,-99.99,,,-99.99,,2013-10-29 00:22:00,
2013-10-28 19:32:00,33.0,22.0,-100.00,North,0,1.0,6.0,64,-99.99,,,-99.99,,2013-10-29 00:32:00,
2013-10-28 19:42:00,33.0,22.0,-100.00,North,0,1.0,6.0,64,-99.99,,,-99.99,,2013-10-29 00:42:00,
2013-10-28 19:52:00,33.0,22.0,-100.00,North,0,1.0,6.0,64,-99.99,,,-99.99,,2013-10-29 00:52:00,
2013-10-28 20:01:00,33.0,22.0,-100.00,North,0,1.0,6.0,64,-99.99,,,-99.99,,2013-10-29 01:01:00,
2013-10-28 20:02:00,33.0,22.0,-100.00,North,0,1.0,6.0,64,-99.99,,,-99.99,,2013-10-29 01:02:00,
2013-10-28 20:22:00,33.0,22.0,-100.00,North,0,1.0,6.0,64,-99.99,,,-99.99,,2013-10-29 01:22:00,
2013-10-28 20:32:00,33.0,22.0,-100.00,North,0,1.0,6.0,64,-99.99,,,-99.99,,2013-10-29 01:32:00,
2013-10-28 20:42:00,33.0,22.0,-100.00,North,0,1.0,6.0,64,-99.99,,,-99.99,,2013-10-29 01:42:00,
2013-10-28 20:53:00,33.0,22.0,-100.00,North,0,1.0,6.0,64,-99.99,,,-99.99,,2013-10-29 01:53:00,
2013-10-28 21:03:00,33.0,22.0,-100.00,North,0,1.0,6.0,64,-99.99,,,-99.99,,2013-10-29 02:03:00,
2013-10-28 21:21:00,33.0,22.0,-100.00,North,0,1.0,6.0,64,-99.99,,,-99.99,,2013-10-29 02:21:00,
2013-10-28 21:34:00,33.0,22.0,-100.00,North,0,1.0,6.0,64,-99.99,,,-99.99,,2013-10-29 02:34:00,
2013-10-28 21:44:00,33.0,22.0,-100.00,North,0,1.0,6.0,64,-99.99,,,-99.99,,2013-10-29 02:44:00,
2013-10-28 21:54:00,33.0,22.0,-100.00,North,0,1.0,6.0,64,-99.99,,,-99.99,,2013-10-29 02:54:00,
2013-10-28 22:02:00,33.0,20.0,-100.00,ENE,75,3.0,7.0,59,-99.99,,,-99.99,,2013-10-29 03:02:00,
2013-10-28 22:27:00,33.0,20.0,-100.00,ENE,75,3.0,7.0,59,-99.99,,,-99.99,,2013-10-29 03:27:00,
2013-10-28 22:40:00,-999.0,-99.9,-100.00,ENE,75,3.0,7.0,59,-99.99,,,-99.99,,2013-10-29 03:40:00,
2013-10-28 22:48:00,33.0,20.0,-100.00,ENE,75,3.0,7.0,59,-99.99,,,-99.99,,2013-10-29 03:48:00,
2013-10-28 22:55:00,33.0,20.0,-100.00,ENE,75,3.0,7.0,59,-99.99,,,-99.99,,2013-10-29 03:55:00,
2013-10-28 23:03:00,29.0,20.0,-100.00,NE,50,0.0,2.0,68,-99.99,,,-99.99,,2013-10-29 04:03:00,
2013-10-28 23:24:00,29.0,20.0,-100.00,NE,50,0.0,2.0,68,-99.99,,,-99.99,,2013-10-29 04:24:00,
2013-10-28 23:39:00,29.0,20.0,-100.00,NE,50,0.0,2.0,68,-99.99,,,-99.99,,2013-10-29 04:39:00,
2013-10-28 23:57:00,29.0,20.0,-100.00,NE,50,0.0,2.0,68,-99.99,,,-99.99,,2013-10-29 04:57:00,